createdAt,value
2024-03-15T00:01:04.324Z,99521.84
2024-03-15T00:03:36.621Z,99525.28
2024-03-15T00:06:06.315Z,99519.50
2024-03-15T00:08:38.511Z,99515.94
2024-03-15T00:11:10.707Z,99522.00
2024-03-15T00:13:47.631Z,99510.03
2024-03-15T00:16:24.702Z,99529.28
2024-03-15T00:18:57.153Z,99529.19
2024-03-15T00:21:29.942Z,99516.31
2024-03-15T00:24:03.188Z,99513.47
2024-03-15T00:26:33.375Z,99511.78
2024-03-15T00:29:07.492Z,99506.66
2024-03-15T00:31:35.896Z,99512.50
2024-03-15T00:34:08.598Z,99510.78
2024-03-15T00:36:37.148Z,99516.25
2024-03-15T00:39:08.431Z,99509.34
2024-03-15T00:41:37.157Z,99505.72
2024-03-15T00:44:08.157Z,99500.63
2024-03-15T00:46:36.614Z,99498.97
2024-03-15T00:49:05.560Z,99491.94
2024-03-15T00:51:36.648Z,99491.06
2024-03-15T00:54:06.242Z,99489.41
2024-03-15T00:56:35.015Z,99488.75
2024-03-15T00:59:03.668Z,99485.91
2024-03-15T01:01:33.827Z,99488.50
2024-03-15T01:04:02.311Z,99483.25
2024-03-15T01:06:39.897Z,99488.47
2024-03-15T01:09:08.672Z,99475.72
2024-03-15T01:11:43.001Z,99479.22
2024-03-15T01:14:14.017Z,99480.19
2024-03-15T01:16:47.735Z,99477.47
2024-03-15T01:19:17.244Z,99480.38
2024-03-15T01:21:45.963Z,99476.63
2024-03-15T01:24:15.292Z,99477.38
2024-03-15T01:26:46.302Z,99486.44
2024-03-15T01:29:20.072Z,99486.25
2024-03-15T01:31:48.889Z,99482.91
2024-03-15T01:34:18.897Z,99484.63
2024-03-15T01:36:48.172Z,99477.75
2024-03-15T01:39:19.009Z,99480.44
2024-03-15T01:41:51.093Z,99484.75
2024-03-15T01:44:20.189Z,99480.38
2024-03-15T01:46:53.232Z,99480.53
2024-03-15T01:49:28.137Z,99479.00
2024-03-15T01:51:56.634Z,99474.75
2024-03-15T01:54:29.957Z,99478.19
2024-03-15T01:56:59.641Z,99478.75
2024-03-15T01:59:30.276Z,99483.13
2024-03-15T02:02:01.602Z,99482.50
2024-03-15T02:04:32.354Z,99491.94
2024-03-15T02:07:01.014Z,99489.28
2024-03-15T02:09:33.117Z,99488.56
2024-03-15T02:12:01.572Z,99484.19
2024-03-15T02:14:35.866Z,99484.31
2024-03-15T02:17:04.244Z,99486.88
2024-03-15T02:19:35.943Z,99486.94
2024-03-15T02:22:04.342Z,99487.75
2024-03-15T02:24:37.009Z,99492.22
2024-03-15T02:27:06.424Z,99491.31
2024-03-15T02:29:41.298Z,99497.41
2024-03-15T02:32:09.735Z,99493.09
2024-03-15T02:34:42.308Z,99494.88
2024-03-15T02:37:10.862Z,99488.78
2024-03-15T02:39:40.400Z,99497.47
2024-03-15T02:42:08.946Z,99494.91
2024-03-15T02:44:39.179Z,99500.03
2024-03-15T02:47:10.284Z,99494.91
2024-03-15T02:49:47.757Z,99493.16
2024-03-15T02:52:16.564Z,99493.09
2024-03-15T02:54:46.666Z,99499.06
2024-03-15T02:57:15.124Z,99499.09
2024-03-15T02:59:49.157Z,99500.19
2024-03-15T03:02:17.753Z,99502.03
2024-03-15T03:04:47.950Z,99501.03
2024-03-15T03:07:16.340Z,99501.06
2024-03-15T03:09:49.629Z,99506.34
2024-03-15T03:12:18.358Z,99503.78
2024-03-15T03:14:48.572Z,99508.13
2024-03-15T03:17:19.867Z,99507.28
2024-03-15T03:19:52.196Z,99503.84
2024-03-15T03:22:20.855Z,99502.94
2024-03-15T03:24:54.217Z,99504.78
2024-03-15T03:27:22.939Z,99503.91
2024-03-15T03:29:57.561Z,99511.66
2024-03-15T03:32:26.223Z,99507.38
2024-03-15T03:34:56.380Z,99500.50
2024-03-15T03:37:24.765Z,99504.78
2024-03-15T03:39:59.311Z,99509.94
2024-03-15T03:42:27.797Z,99510.84
2024-03-15T03:45:02.388Z,99510.84
2024-03-15T03:47:30.824Z,99510.00
2024-03-15T03:50:03.880Z,99508.28
2024-03-15T03:52:32.294Z,99509.12
2024-03-15T03:55:06.540Z,99512.56
2024-03-15T03:57:43.655Z,99511.72
2024-03-15T04:00:16.924Z,99513.44
2024-03-15T04:02:47.793Z,99511.72
2024-03-15T04:05:16.443Z,99514.31
2024-03-15T04:07:48.658Z,99515.16
2024-03-15T04:10:17.378Z,99520.31
2024-03-15T04:12:54.124Z,99520.31
2024-03-15T04:15:29.295Z,99525.47
2024-03-15T04:18:00.130Z,99520.31
2024-03-15T04:20:31.933Z,99524.62
2024-03-15T04:23:00.456Z,99520.34
2024-03-15T04:25:34.480Z,99522.03
2024-03-15T04:28:03.415Z,99523.75
2024-03-15T04:30:33.284Z,99526.34
2024-03-15T04:33:02.854Z,99527.22
2024-03-15T04:35:32.612Z,99520.31
2024-03-15T04:38:05.553Z,99521.19
2024-03-15T04:40:42.597Z,99523.75
2024-03-15T04:43:12.158Z,99524.59
2024-03-15T04:45:44.900Z,99527.19
2024-03-15T04:48:13.701Z,99527.19
2024-03-15T04:50:51.080Z,99525.47
2024-03-15T04:53:23.370Z,99533.22
2024-03-15T04:55:51.834Z,99533.19
2024-03-15T04:58:27.263Z,99530.63
2024-03-15T05:00:56.127Z,99532.34
2024-03-15T05:03:28.703Z,99537.44
2024-03-15T05:05:57.166Z,99540.06
2024-03-15T05:08:29.100Z,99536.59
2024-03-15T05:10:57.666Z,99537.44
2024-03-15T05:13:27.710Z,99535.72
2024-03-15T05:15:56.218Z,99544.22
2024-03-15T05:18:30.021Z,99537.44
2024-03-15T05:20:58.765Z,99532.31
2024-03-15T05:23:33.336Z,99540.81
2024-03-15T05:26:02.146Z,99541.72
2024-03-15T05:28:36.352Z,99536.59
2024-03-15T05:31:08.220Z,99548.63
2024-03-15T05:33:39.524Z,99541.78
2024-03-15T05:36:15.454Z,99541.75
2024-03-15T05:38:43.859Z,99546.91
2024-03-15T05:41:19.233Z,99544.37
2024-03-15T05:43:47.661Z,99542.66
2024-03-15T05:46:21.215Z,99543.53
2024-03-15T05:48:49.838Z,99538.38
2024-03-15T05:51:21.573Z,99546.97
2024-03-15T05:53:50.054Z,99546.09
2024-03-15T05:56:23.349Z,99548.69
2024-03-15T05:58:52.387Z,99544.37
2024-03-15T06:01:22.667Z,99550.38
2024-03-15T06:03:51.567Z,99558.13
2024-03-15T06:06:27.315Z,99560.69
2024-03-15T06:08:56.068Z,99557.25
2024-03-15T06:11:26.220Z,99562.41
2024-03-15T06:13:55.170Z,99561.50
2024-03-15T06:16:29.098Z,99560.63
2024-03-15T06:18:57.773Z,99564.09
2024-03-15T06:21:31.527Z,99566.59
2024-03-15T06:23:59.968Z,99565.75
2024-03-15T06:26:32.072Z,99564.13
2024-03-15T06:29:03.399Z,99573.44
2024-03-15T06:31:34.776Z,99573.59
2024-03-15T06:34:09.323Z,99573.47
2024-03-15T06:36:44.443Z,99570.97
2024-03-15T06:39:26.112Z,99574.94
2024-03-15T06:42:00.248Z,99581.28
2024-03-15T06:44:40.465Z,99582.09
2024-03-15T06:47:31.275Z,99579.34
2024-03-15T06:50:24.813Z,99578.53
2024-03-15T06:52:55.429Z,99577.44
2024-03-15T06:55:30.624Z,99576.88
2024-03-15T06:58:03.813Z,99580.06
2024-03-15T07:00:37.814Z,99580.09
2024-03-15T07:03:14.707Z,99582.63
2024-03-15T07:05:43.964Z,99590.22
2024-03-15T07:08:16.860Z,99588.78
2024-03-15T07:10:45.360Z,99586.16
2024-03-15T07:13:17.598Z,99590.06
2024-03-15T07:15:46.239Z,99583.91
2024-03-15T07:18:18.830Z,99589.91
2024-03-15T07:20:47.633Z,99587.72
2024-03-15T07:23:19.450Z,99593.34
2024-03-15T07:25:50.953Z,99582.28
2024-03-15T07:28:22.607Z,99590.75
2024-03-15T07:30:51.370Z,99595.00
2024-03-15T07:33:25.464Z,99590.59
2024-03-15T07:35:55.836Z,99591.03
2024-03-15T07:38:28.845Z,99596.91
2024-03-15T07:40:57.289Z,99605.75
2024-03-15T07:43:35.082Z,99599.16
2024-03-15T07:46:07.408Z,99606.72
2024-03-15T07:48:36.148Z,99601.00
2024-03-15T07:51:10.549Z,99611.69
2024-03-15T07:53:40.433Z,99607.31
2024-03-15T07:56:12.159Z,99616.78
2024-03-15T07:58:41.293Z,99611.69
2024-03-15T08:01:10.764Z,99617.09
2024-03-15T08:03:39.953Z,99608.06
2024-03-15T08:06:12.045Z,99606.28
2024-03-15T08:08:41.161Z,99600.34
2024-03-15T08:11:13.235Z,99607.34
2024-03-15T08:13:42.600Z,99608.91
2024-03-15T08:16:17.309Z,99605.03
2024-03-15T08:18:48.807Z,99603.50
2024-03-15T08:21:20.775Z,99598.84
2024-03-15T08:23:49.479Z,99607.94
2024-03-15T08:26:21.946Z,99609.22
2024-03-15T08:28:51.277Z,99608.22
2024-03-15T08:31:20.584Z,99613.00
2024-03-15T08:33:49.849Z,99608.59
2024-03-15T08:36:20.938Z,99612.34
2024-03-15T08:38:49.889Z,99615.09
2024-03-15T08:41:24.290Z,99609.19
2024-03-15T08:43:52.700Z,99614.91
2024-03-15T08:46:23.896Z,99608.41
2024-03-15T08:48:57.227Z,99606.34
2024-03-15T08:51:30.019Z,99597.28
2024-03-15T08:53:58.670Z,99597.37
2024-03-15T08:56:34.467Z,99609.34
2024-03-15T08:59:08.264Z,99597.09
2024-03-15T09:01:37.347Z,99593.66
2024-03-15T09:04:10.173Z,99597.50
2024-03-15T09:06:38.961Z,99595.09
2024-03-15T09:09:14.513Z,99601.03
2024-03-15T09:11:44.057Z,99600.44
2024-03-15T09:14:20.010Z,99602.66
2024-03-15T09:16:53.420Z,99600.88
2024-03-15T09:19:23.007Z,99604.09
2024-03-15T09:21:56.189Z,99603.66
2024-03-15T09:24:24.648Z,99598.19
2024-03-15T09:27:02.208Z,99588.97
2024-03-15T09:29:30.641Z,99593.09
2024-03-15T09:32:13.869Z,99594.84
2024-03-15T09:34:50.096Z,99601.75
2024-03-15T09:37:26.326Z,99594.50
2024-03-15T09:39:55.005Z,99596.06
2024-03-15T09:42:30.654Z,99592.22
2024-03-15T09:45:08.898Z,99596.75
2024-03-15T09:47:38.632Z,99585.84
2024-03-15T09:50:12.575Z,99592.75
2024-03-15T09:52:42.113Z,99594.78
2024-03-15T09:55:14.662Z,99590.75
2024-03-15T09:57:44.811Z,99595.22
2024-03-15T10:00:24.562Z,99591.81
2024-03-15T10:02:57.735Z,99591.25
2024-03-15T10:05:26.194Z,99581.75
2024-03-15T10:07:58.000Z,99581.78
2024-03-15T10:10:27.725Z,99587.91
2024-03-15T10:12:58.542Z,99572.88
2024-03-15T10:15:27.205Z,99575.44
2024-03-15T10:18:02.100Z,99571.63
2024-03-15T10:20:34.886Z,99580.66
2024-03-15T10:23:07.983Z,99569.13
2024-03-15T10:25:42.670Z,99571.50
2024-03-15T10:28:12.208Z,99568.63
2024-03-15T10:30:44.681Z,99563.78
2024-03-15T10:33:13.479Z,99564.06
2024-03-15T10:35:47.312Z,99562.69
2024-03-15T10:38:16.385Z,99558.87
2024-03-15T10:40:48.743Z,99558.97
2024-03-15T10:43:17.538Z,99557.63
2024-03-15T10:45:50.206Z,99558.28
2024-03-15T10:48:21.094Z,99557.63
2024-03-15T10:50:49.811Z,99567.78
2024-03-15T10:53:18.437Z,99563.31
2024-03-15T10:55:52.674Z,99561.00
2024-03-15T10:58:21.350Z,99556.59
2024-03-15T11:00:59.815Z,99550.84
2024-03-15T11:03:33.423Z,99552.37
2024-03-15T11:06:02.592Z,99552.75
2024-03-15T11:08:36.211Z,99552.00
2024-03-15T11:11:05.793Z,99543.59
2024-03-15T11:13:38.102Z,99550.97
2024-03-15T11:16:21.185Z,99544.06
2024-03-15T11:18:49.661Z,99547.09
2024-03-15T11:21:21.956Z,99549.16
2024-03-15T11:23:51.808Z,99546.09
2024-03-15T11:26:22.801Z,99541.59
2024-03-15T11:28:57.583Z,99542.84
2024-03-15T11:31:34.118Z,99534.56
2024-03-15T11:34:04.330Z,99529.78
2024-03-15T11:36:33.075Z,99532.59
2024-03-15T11:39:11.199Z,99527.22
2024-03-15T11:41:40.401Z,99530.47
2024-03-15T11:44:11.572Z,99525.34
2024-03-15T11:46:40.306Z,99534.91
2024-03-15T11:49:10.724Z,99525.34
2024-03-15T11:51:40.675Z,99515.13
2024-03-15T11:54:15.760Z,99522.16
2024-03-15T11:56:45.231Z,99517.12
2024-03-15T11:59:16.425Z,99520.00
2024-03-15T12:01:44.921Z,99512.16
2024-03-15T12:04:15.183Z,99517.12
2024-03-15T12:06:44.390Z,99512.06
2024-03-15T12:09:19.303Z,99513.87
2024-03-15T12:11:48.166Z,99516.91
2024-03-15T12:14:20.373Z,99509.16
2024-03-15T12:16:49.085Z,99512.13
2024-03-15T12:19:20.626Z,99508.34
2024-03-15T12:21:49.701Z,99500.47
2024-03-15T12:24:20.740Z,99506.16
2024-03-15T12:26:49.473Z,99499.25
2024-03-15T12:29:21.586Z,99500.69
2024-03-15T12:31:50.259Z,99498.59
2024-03-15T12:34:20.602Z,99497.97
2024-03-15T12:36:49.458Z,99501.72
2024-03-15T12:39:25.966Z,99504.50
2024-03-15T12:41:56.355Z,99497.47
2024-03-15T12:44:26.486Z,99486.09
2024-03-15T12:46:54.888Z,99490.66
2024-03-15T12:49:26.694Z,99486.94
2024-03-15T12:51:55.428Z,99486.72
2024-03-15T12:54:25.711Z,99484.41
2024-03-15T12:56:56.655Z,99492.22
2024-03-15T12:59:28.094Z,99483.47
2024-03-15T13:01:56.942Z,99483.25
2024-03-15T13:04:32.748Z,99486.03
2024-03-15T13:07:01.224Z,99484.72
2024-03-15T13:09:33.633Z,99480.56
2024-03-15T13:12:02.786Z,99482.59
2024-03-15T13:14:34.964Z,99480.84
2024-03-15T13:17:04.642Z,99477.00
2024-03-15T13:19:34.600Z,99474.50
2024-03-15T13:22:03.091Z,99473.50
2024-03-15T13:24:33.078Z,99477.97
2024-03-15T13:27:04.914Z,99476.53
2024-03-15T13:29:39.846Z,99467.22
2024-03-15T13:32:08.784Z,99472.31
2024-03-15T13:34:40.960Z,99471.38
2024-03-15T13:37:09.617Z,99474.34
2024-03-15T13:39:41.239Z,99477.94
2024-03-15T13:42:09.931Z,99473.72
2024-03-15T13:44:39.380Z,99469.47
2024-03-15T13:47:09.939Z,99466.13
2024-03-15T13:49:40.303Z,99466.53
2024-03-15T13:52:09.533Z,99460.16
2024-03-15T13:54:39.518Z,99458.78
2024-03-15T13:57:17.278Z,99461.41
2024-03-15T13:59:48.781Z,99461.28
2024-03-15T14:02:18.324Z,99459.94
2024-03-15T14:04:47.414Z,99458.66
2024-03-15T14:07:17.648Z,99452.34
2024-03-15T14:09:50.948Z,99454.59
2024-03-15T14:12:19.837Z,99452.91
2024-03-15T14:14:52.676Z,99453.44
2024-03-15T14:17:21.352Z,99452.84
2024-03-15T14:19:52.690Z,99443.28
2024-03-15T14:22:21.425Z,99444.87
2024-03-15T14:24:51.847Z,99446.47
2024-03-15T14:27:22.659Z,99446.81
2024-03-15T14:29:56.565Z,99448.91
2024-03-15T14:32:29.142Z,99449.66
2024-03-15T14:34:57.794Z,99449.50
2024-03-15T14:37:29.842Z,99440.62
2024-03-15T14:39:58.309Z,99444.56
2024-03-15T14:42:27.189Z,99444.13
2024-03-15T14:45:01.408Z,99442.78
2024-03-15T14:47:30.103Z,99445.66
2024-03-15T14:49:59.604Z,99444.75
2024-03-15T14:52:28.043Z,99440.59
2024-03-15T14:55:06.104Z,99441.00
2024-03-15T14:57:34.610Z,99444.25
2024-03-15T15:00:13.599Z,99438.91
2024-03-15T15:02:47.542Z,99441.44
2024-03-15T15:05:16.231Z,99444.06
2024-03-15T15:07:48.106Z,99442.56
2024-03-15T15:10:18.349Z,99439.53
2024-03-15T15:12:47.609Z,99443.06
2024-03-15T15:15:20.704Z,99443.06
2024-03-15T15:17:55.322Z,99442.06
2024-03-15T15:20:31.319Z,99441.81
2024-03-15T15:23:05.321Z,99440.06
2024-03-15T15:25:36.570Z,99442.63
2024-03-15T15:28:05.820Z,99436.37
2024-03-15T15:30:35.894Z,99442.13
2024-03-15T15:33:05.066Z,99441.44
2024-03-15T15:35:36.444Z,99440.94
2024-03-15T15:38:05.713Z,99445.16
2024-03-15T15:40:38.615Z,99449.91
2024-03-15T15:43:07.621Z,99448.22
2024-03-15T15:45:44.156Z,99453.59
2024-03-15T15:48:20.705Z,99447.44
2024-03-15T15:50:49.956Z,99454.78
2024-03-15T15:53:24.855Z,99451.59
2024-03-15T15:55:53.617Z,99453.16
2024-03-15T15:58:25.800Z,99452.31
2024-03-15T16:00:55.154Z,99449.06
2024-03-15T16:03:26.663Z,99457.06
2024-03-15T16:05:56.875Z,99460.94
2024-03-15T16:08:28.279Z,99458.84
2024-03-15T16:10:56.875Z,99450.66
2024-03-15T16:13:28.262Z,99455.09
2024-03-15T16:15:57.588Z,99450.31
2024-03-15T16:18:29.525Z,99451.47
2024-03-15T16:20:57.913Z,99455.91
2024-03-15T16:23:28.493Z,99452.94
2024-03-15T16:25:58.763Z,99451.50
2024-03-15T16:28:32.424Z,99454.81
2024-03-15T16:31:01.199Z,99452.37
2024-03-15T16:33:31.558Z,99462.13
2024-03-15T16:36:00.589Z,99457.31
2024-03-15T16:38:41.459Z,99462.84
2024-03-15T16:41:16.313Z,99460.37
2024-03-15T16:43:44.791Z,99464.97
2024-03-15T16:46:16.627Z,99472.50
2024-03-15T16:48:45.799Z,99465.06
2024-03-15T16:51:20.492Z,99465.38
2024-03-15T16:53:49.197Z,99476.09
2024-03-15T16:56:22.275Z,99472.94
2024-03-15T16:58:50.803Z,99468.84
2024-03-15T17:01:22.559Z,99477.66
2024-03-15T17:03:51.091Z,99475.16
2024-03-15T17:06:25.720Z,99486.47
2024-03-15T17:08:54.218Z,99483.37
2024-03-15T17:11:26.787Z,99491.41
2024-03-15T17:13:55.763Z,99491.34
2024-03-15T17:16:25.486Z,99494.31
2024-03-15T17:18:57.836Z,99493.69
2024-03-15T17:21:27.541Z,99497.25
2024-03-15T17:23:55.995Z,99500.94
2024-03-15T17:26:33.642Z,99498.34
2024-03-15T17:29:03.109Z,99502.97
2024-03-15T17:31:32.010Z,99505.09
2024-03-15T17:34:00.615Z,99505.25
2024-03-15T17:36:31.476Z,99504.44
2024-03-15T17:38:59.932Z,99499.34
2024-03-15T17:41:41.728Z,99499.56
2024-03-15T17:44:13.097Z,99509.28
2024-03-15T17:46:44.052Z,99513.75
2024-03-15T17:49:18.640Z,99510.53
2024-03-15T17:51:47.544Z,99509.78
2024-03-15T17:54:19.011Z,99512.38
2024-03-15T17:56:50.484Z,99515.97
2024-03-15T17:59:20.470Z,99510.63
2024-03-15T18:01:49.309Z,99520.91
2024-03-15T18:04:26.327Z,99513.59
2024-03-15T18:06:55.174Z,99520.22
2024-03-15T18:09:24.925Z,99525.59
2024-03-15T18:11:54.249Z,99535.69
2024-03-15T18:14:25.769Z,99532.56
2024-03-15T18:16:56.588Z,99531.78
2024-03-15T18:19:27.833Z,99535.22
2024-03-15T18:21:56.631Z,99544.84
2024-03-15T18:24:28.895Z,99542.75
2024-03-15T18:26:57.772Z,99547.62
2024-03-15T18:29:30.222Z,99542.66
2024-03-15T18:31:59.009Z,99538.38
2024-03-15T18:34:32.024Z,99540.31
2024-03-15T18:37:00.879Z,99541.09
2024-03-15T18:39:33.218Z,99541.41
2024-03-15T18:42:02.190Z,99543.78
2024-03-15T18:44:33.912Z,99543.78
2024-03-15T18:47:05.935Z,99550.22
2024-03-15T18:49:34.649Z,99551.34
2024-03-15T18:52:03.606Z,99554.03
2024-03-15T18:54:33.468Z,99555.03
2024-03-15T18:57:05.316Z,99563.75
2024-03-15T18:59:39.526Z,99562.72
2024-03-15T19:02:08.266Z,99563.72
2024-03-15T19:04:42.611Z,99567.59
2024-03-15T19:07:11.694Z,99554.75
2024-03-15T19:09:41.315Z,99550.66
2024-03-15T19:12:10.152Z,99552.59
2024-03-15T19:14:40.656Z,99549.97
2024-03-15T19:17:13.600Z,99549.19
2024-03-15T19:19:45.899Z,99555.47
2024-03-15T19:22:14.420Z,99552.13
2024-03-15T19:24:47.988Z,99544.34
2024-03-15T19:27:16.713Z,99545.94
2024-03-15T19:29:47.455Z,99542.19
2024-03-15T19:32:16.285Z,99537.16
2024-03-15T19:34:48.382Z,99552.97
2024-03-15T19:37:17.725Z,99555.41
2024-03-15T19:39:49.912Z,99557.88
2024-03-15T19:42:18.611Z,99549.75
2024-03-15T19:44:51.114Z,99552.50
2024-03-15T19:47:21.635Z,99553.44
2024-03-15T19:49:53.882Z,99555.38
2024-03-15T19:52:22.843Z,99551.16
2024-03-15T19:54:54.599Z,99546.03
2024-03-15T19:57:26.639Z,99550.31
2024-03-15T20:00:03.991Z,99557.13
2024-03-15T20:02:41.613Z,99549.38
2024-03-15T20:05:10.549Z,99553.22
2024-03-15T20:07:42.661Z,99546.81
2024-03-15T20:10:12.170Z,99543.91
2024-03-15T20:12:41.600Z,99545.66
2024-03-15T20:15:10.967Z,99551.25
2024-03-15T20:17:41.162Z,99542.44
2024-03-15T20:20:11.705Z,99544.16
2024-03-15T20:22:42.223Z,99542.44
2024-03-15T20:25:12.314Z,99534.41
2024-03-15T20:27:45.540Z,99539.16
2024-03-15T20:30:14.573Z,99543.16
2024-03-15T20:32:46.508Z,99544.37
2024-03-15T20:35:15.742Z,99542.81
2024-03-15T20:37:47.781Z,99552.78
2024-03-15T20:40:23.321Z,99550.09
2024-03-15T20:42:56.188Z,99554.94
2024-03-15T20:45:32.648Z,99560.00
2024-03-15T20:48:02.521Z,99557.88
2024-03-15T20:50:33.469Z,99561.41
2024-03-15T20:53:06.854Z,99556.84
2024-03-15T20:55:35.557Z,99562.06
2024-03-15T20:58:06.760Z,99566.06
2024-03-15T21:00:38.711Z,99568.34
2024-03-15T21:03:07.781Z,99568.56
2024-03-15T21:05:38.905Z,99564.31
2024-03-15T21:08:09.490Z,99562.81
2024-03-15T21:10:38.222Z,99568.91
2024-03-15T21:13:06.747Z,99568.97
2024-03-15T21:15:41.821Z,99568.97
2024-03-15T21:18:10.428Z,99574.75
2024-03-15T21:20:41.192Z,99579.44
2024-03-15T21:23:09.646Z,99571.34
2024-03-15T21:25:45.483Z,99574.22
2024-03-15T21:28:14.133Z,99574.16
2024-03-15T21:30:43.760Z,99578.34
2024-03-15T21:33:12.270Z,99582.03
2024-03-15T21:35:46.765Z,99585.44
2024-03-15T21:38:15.307Z,99591.66
2024-03-15T21:40:46.740Z,99587.00
2024-03-15T21:43:17.889Z,99589.81
2024-03-15T21:45:50.269Z,99592.41
2024-03-15T21:48:19.055Z,99591.84
2024-03-15T21:50:51.236Z,99590.09
2024-03-15T21:53:19.822Z,99589.19
2024-03-15T21:55:57.485Z,99591.72
2024-03-15T21:58:26.730Z,99596.63
2024-03-15T22:01:04.705Z,99596.81
2024-03-15T22:03:36.044Z,99593.47
2024-03-15T22:06:06.776Z,99595.22
2024-03-15T22:08:35.439Z,99594.44
2024-03-15T22:11:05.057Z,99602.16
2024-03-15T22:13:42.461Z,99598.69
2024-03-15T22:16:13.870Z,99595.88
2024-03-15T22:18:46.421Z,99592.38
2024-03-15T22:21:19.915Z,99597.53
2024-03-15T22:23:48.322Z,99596.47
2024-03-15T22:26:18.313Z,99590.94
2024-03-15T22:28:48.989Z,99587.66
2024-03-15T22:31:23.341Z,99592.97
2024-03-15T22:33:51.821Z,99593.41
2024-03-15T22:36:26.765Z,99593.09
2024-03-15T22:38:55.267Z,99593.75
2024-03-15T22:41:27.026Z,99603.88
2024-03-15T22:43:57.267Z,99605.41
2024-03-15T22:46:27.905Z,99594.31
2024-03-15T22:48:56.465Z,99594.38
2024-03-15T22:51:26.365Z,99588.13
2024-03-15T22:53:54.142Z,99593.47
2024-03-15T22:56:28.552Z,99592.34
2024-03-15T22:58:57.440Z,99592.56
2024-03-15T23:01:38.784Z,99590.25
2024-03-15T23:04:12.715Z,99594.63
2024-03-15T23:06:41.236Z,99597.25
2024-03-15T23:09:13.961Z,99593.75
2024-03-15T23:11:42.652Z,99595.63
2024-03-15T23:14:20.261Z,99591.34
2024-03-15T23:16:48.702Z,99598.28
2024-03-15T23:19:19.250Z,99599.13
2024-03-15T23:21:47.797Z,99599.84
2024-03-15T23:24:20.024Z,99595.56
2024-03-15T23:26:48.403Z,99595.56
2024-03-15T23:29:18.407Z,99591.34
2024-03-15T23:31:46.989Z,99595.91
2024-03-15T23:34:18.853Z,99600.03
2024-03-15T23:36:50.430Z,99595.09
2024-03-15T23:39:24.653Z,99588.28
2024-03-15T23:41:54.586Z,99593.59
2024-03-15T23:44:26.747Z,99591.84
2024-03-15T23:46:55.448Z,99588.34
2024-03-15T23:49:26.287Z,99595.22
2024-03-15T23:51:55.070Z,99593.53
2024-03-15T23:54:26.173Z,99595.03
2024-03-15T23:56:55.155Z,99605.66
2024-03-15T23:59:29.302Z,99602.03
